Terminal Aerodrome Forecast
Issued by NWS Green Bay, WI

Home | Current Version | Previous Version | Text Only | Print | Product List | Glossary On
Versions: 1 2 3 4 5 6 7 8 9 10 11 12 13 14 15 16 17 18 19 20 21 22 23 24 25 26 27 28 29
000
FTUS43 KGRB 051100
TAFGRB
TAF
KGRB 051130Z 0512/0612 10010KT P6SM SCT070 BKN140
     FM060100 08005KT P6SM SCT040 OVC070
     FM060500 07004KT P6SM SCT025 OVC040
     FM060900 06004KT P6SM VCSH BKN015 OVC025=

USA.gov is the U.S. government's official web portal to all federal, state and local government web resources and services.